Time;durP1;ratioP1;P1;durP2;ratioP2;P2;SDS_P1;SDS_P2;PMS_P1;PMS_P2;Temp;Humidity;BMP_temperature;BMP_pressure;BME280_temperature;BME280_humidity;BME280_pressure;Samples;Min_cycle;Max_cycle;Signal;HPM_P1;HPM_P2
2022/11/07 00:02:09;;;;;;;16.02;7.62;;;;;;;10.58;69.35;100042.34;7792955;32;39199;-78
2022/11/07 00:06:25;;;;;;;15.75;7.62;;;;;;;10.58;69.95;100044.28;7793799;32;40001;-77
2022/11/07 00:10:41;;;;;;;15.95;8.07;;;;;;;10.96;68.72;100047.69;7793845;32;37786;-77
2022/11/07 00:14:58;;;;;;;11.00;7.35;;;;;;;11.04;68.67;100044.44;7793835;32;38097;-78
2022/11/07 00:19:18;;;;;;;13.62;7.50;;;;;;;10.89;69.07;100051.47;7793609;32;39167;-78
2022/11/07 00:23:35;;;;;;;14.63;7.78;;;;;;;10.57;70.47;100061.69;7793460;32;39981;-78
2022/11/07 00:27:51;;;;;;;14.10;7.90;;;;;;;10.84;69.41;100056.09;7792988;32;38516;-78
2022/11/07 00:32:08;;;;;;;13.62;8.05;;;;;;;11.17;68.61;100054.81;7779775;32;37025;-79
2022/11/07 00:36:26;;;;;;;144.45;13.23;;;;;;;11.28;68.05;100037.41;7793643;32;38871;-78
2022/11/07 00:40:42;;;;;;;18.98;8.70;;;;;;;11.25;68.08;100043.41;7793413;32;40096;-78
2022/11/07 00:44:59;;;;;;;13.73;7.85;;;;;;;10.58;70.34;100055.19;7793380;32;37694;-77
2022/11/07 00:49:15;;;;;;;15.80;8.82;;;;;;;10.97;69.02;100057.50;7793075;32;37555;-78
2022/11/07 00:53:31;;;;;;;18.00;8.65;;;;;;;11.11;68.96;100068.72;7793174;32;39473;-78
2022/11/07 00:57:47;;;;;;;14.77;8.32;;;;;;;10.84;69.96;100059.62;7793456;32;39430;-77
2022/11/07 01:02:04;;;;;;;15.88;8.15;;;;;;;11.11;69.04;100064.09;7793203;32;37927;-78
2022/11/07 01:06:21;;;;;;;20.73;9.35;;;;;;;11.30;68.47;100060.84;7793180;32;37856;-77
2022/11/07 01:10:40;;;;;;;18.20;8.77;;;;;;;11.01;69.21;100059.44;7793091;32;39228;-77
2022/11/07 01:14:57;;;;;;;16.12;8.75;;;;;;;10.83;69.71;100071.66;7792630;32;39620;-76
2022/11/07 01:19:13;;;;;;;17.20;9.32;;;;;;;11.23;68.62;100059.22;7778963;32;37708;-77
2022/11/07 01:23:29;;;;;;;14.98;7.85;;;;;;;11.03;69.65;100068.16;7792992;32;37734;-77
2022/11/07 01:27:45;;;;;;;15.55;8.95;;;;;;;11.08;69.45;100064.63;7792578;32;40106;-77
2022/11/07 01:32:01;;;;;;;15.80;7.90;;;;;;;11.55;68.08;100060.91;7792616;32;40037;-77
2022/11/07 01:36:18;;;;;;;13.43;8.02;;;;;;;11.60;67.84;100060.09;7792802;32;37998;-78
2022/11/07 01:41:19;;;;;;;15.20;8.05;;;;;;;11.41;68.40;100068.00;7792937;32;37027;-78
2022/11/07 01:45:21;;;;;;;13.02;6.90;;;;;;;11.55;68.22;100068.28;7792692;32;39753;-78
2022/11/07 01:49:39;;;;;;;14.87;7.97;;;;;;;11.39;68.66;100064.72;7792474;32;39972;-78
2022/11/07 01:53:56;;;;;;;16.92;7.53;;;;;;;11.09;69.73;100055.38;7779001;32;36954;-78
2022/11/07 01:58:12;;;;;;;13.73;7.80;;;;;;;11.62;68.07;100058.75;7792632;32;37067;-78
2022/11/07 02:02:28;;;;;;;14.82;8.57;;;;;;;11.63;67.89;100060.38;7778689;32;39309;-77
2022/11/07 02:06:53;;;;;;;16.30;9.10;;;;;;;11.58;68.00;100054.09;7778316;32;39705;-78
2022/11/07 02:11:11;;;;;;;16.73;8.50;;;;;;;11.53;68.36;100054.91;7792414;32;37857;-78
2022/11/07 02:15:27;;;;;;;15.35;8.00;;;;;;;11.39;68.69;100054.59;7778359;32;36657;-78
2022/11/07 02:19:51;;;;;;;18.95;9.30;;;;;;;11.64;67.76;100051.09;7778453;32;39360;-78
2022/11/07 02:24:07;;;;;;;17.45;9.13;;;;;;;11.35;69.04;100052.69;7778744;32;40060;-77
2022/11/07 02:28:25;;;;;;;14.05;8.23;;;;;;;11.45;68.91;100052.69;7792042;32;38711;-78
2022/11/07 02:32:41;;;;;;;13.77;8.07;;;;;;;11.05;70.17;100059.72;7792337;32;37096;-77
2022/11/07 02:36:58;;;;;;;16.95;8.68;;;;;;;11.38;69.03;100047.53;7791609;32;40011;-77
2022/11/07 02:41:22;;;;;;;17.90;9.55;;;;;;;11.45;69.08;100030.84;7791910;32;40262;-78
2022/11/07 02:45:40;;;;;;;15.95;9.68;;;;;;;11.54;68.84;100010.13;7778128;32;39263;-78
2022/11/07 02:49:57;;;;;;;17.87;10.43;;;;;;;11.56;68.69;100023.50;7778220;32;38043;-76
2022/11/07 02:54:13;;;;;;;17.25;10.18;;;;;;;11.14;70.07;100019.06;7791738;32;39046;-78
2022/11/07 02:58:29;;;;;;;16.00;10.18;;;;;;;11.35;69.58;100015.31;7791821;32;39960;-78
2022/11/07 03:02:45;;;;;;;15.68;9.45;;;;;;;11.43;69.38;100016.66;7791655;32;38078;-77
2022/11/07 03:07:02;;;;;;;17.42;9.90;;;;;;;11.36;69.75;100016.13;7791647;32;37867;-79
2022/11/07 03:11:18;;;;;;;17.45;9.75;;;;;;;11.41;69.74;100018.84;7777321;32;39281;-78
2022/11/07 03:15:35;;;;;;;19.62;10.55;;;;;;;11.45;69.45;100019.94;7791559;32;39628;-78
2022/11/07 03:19:51;;;;;;;20.05;9.43;;;;;;;11.59;68.77;100021.06;7791311;32;38413;-78
2022/11/07 03:24:07;;;;;;;17.77;9.40;;;;;;;11.54;68.83;100022.94;7791371;32;37077;-78
2022/11/07 03:28:23;;;;;;;27.27;10.45;;;;;;;11.48;69.24;100015.84;7791242;32;39431;-78
2022/11/07 03:32:40;;;;;;;20.98;10.70;;;;;;;10.82;71.21;100020.91;7791101;32;39956;-78
2022/11/07 03:36:56;;;;;;;19.50;10.35;;;;;;;11.50;68.98;100027.31;7790229;32;37972;-77
2022/11/07 03:41:16;;;;;;;18.27;10.32;;;;;;;11.42;69.28;100020.50;7790755;32;37102;-77
2022/11/07 03:45:33;;;;;;;20.50;10.57;;;;;;;11.17;70.07;100016.63;7790535;32;39264;-78
2022/11/07 03:49:49;;;;;;;25.02;10.65;;;;;;;11.20;70.20;100023.47;7790700;32;39953;-78
2022/11/07 03:54:06;;;;;;;20.67;11.65;;;;;;;11.34;70.12;100018.31;7790500;32;38812;-78
2022/11/07 03:58:23;;;;;;;26.95;12.50;;;;;;;11.49;69.36;100034.69;7790470;32;37037;-78
2022/11/07 04:02:39;;;;;;;23.73;12.35;;;;;;;11.39;70.26;100031.97;7790471;32;39833;-77
2022/11/07 04:06:55;;;;;;;21.17;11.50;;;;;;;11.23;70.82;100033.84;7790135;32;39719;-78
2022/11/07 04:17:17;;;;;;;22.20;11.65;;;;;;;11.18;70.99;100053.75;7789920;32;37828;-79
2022/11/07 04:20:29;;;;;;;22.95;11.88;;;;;;;11.55;69.54;100046.44;7790000;32;39378;-77
2022/11/07 04:24:46;;;;;;;23.48;12.10;;;;;;;11.61;69.31;100056.28;7789549;32;39960;-78
2022/11/07 04:29:02;;;;;;;26.08;12.82;;;;;;;11.79;68.60;100041.25;7789451;32;37984;-78
2022/11/07 04:33:18;;;;;;;25.88;13.07;;;;;;;11.84;68.62;100039.31;7789239;32;37169;-78
2022/11/07 04:37:35;;;;;;;23.35;12.20;;;;;;;11.58;69.45;100041.25;7789554;32;39945;-78
2022/11/07 04:41:51;;;;;;;22.80;12.15;;;;;;;11.82;68.53;100041.53;7789341;32;40610;-77
2022/11/07 04:46:07;;;;;;;22.55;12.88;;;;;;;11.84;68.11;100046.72;7789164;32;38137;-78
2022/11/07 04:50:23;;;;;;;19.62;12.55;;;;;;;11.37;70.03;100051.34;7793345;32;37266;-77
2022/11/07 04:54:39;;;;;;;24.33;13.07;;;;;;;11.77;68.52;100051.63;7792827;32;39292;-77
2022/11/07 04:58:55;;;;;;;23.75;12.95;;;;;;;11.79;68.35;100069.38;7793254;32;40028;-78
2022/11/07 05:03:12;;;;;;;20.12;12.05;;;;;;;11.53;69.11;100076.75;7792900;32;37963;-78
2022/11/07 05:07:28;;;;;;;21.30;12.20;;;;;;;11.76;68.37;100072.69;7793104;32;37846;-78
2022/11/07 05:11:46;;;;;;;25.80;11.93;;;;;;;11.67;68.68;100084.41;7793362;32;39126;-77
2022/11/07 05:16:02;;;;;;;20.48;12.40;;;;;;;11.48;69.09;100089.56;7793045;32;39770;-77
2022/11/07 05:20:21;;;;;;;19.40;11.90;;;;;;;11.73;68.33;100097.78;7792990;32;38820;-78
2022/11/07 05:24:37;;;;;;;19.42;11.48;;;;;;;11.70;68.59;100098.34;7792991;32;37155;-78
2022/11/07 05:28:54;;;;;;;21.50;12.85;;;;;;;11.64;68.08;100081.13;7792722;32;39211;-79
2022/11/07 05:33:11;;;;;;;25.60;12.95;;;;;;;11.58;68.36;100084.94;7792771;32;39865;-77
2022/11/07 05:37:27;;;;;;;21.23;12.40;;;;;;;11.58;68.15;100090.41;7792710;32;38675;-76
2022/11/07 05:41:44;;;;;;;21.40;11.80;;;;;;;11.41;67.99;100089.81;7792235;32;37671;-77
2022/11/07 05:46:00;;;;;;;18.92;12.18;;;;;;;11.35;68.07;100085.44;7792628;32;39988;-77
2022/11/07 05:50:16;;;;;;;23.02;13.60;;;;;;;11.55;67.20;100095.59;7792547;32;40856;-77
2022/11/07 05:54:33;;;;;;;22.25;13.60;;;;;;;11.30;68.05;100109.97;7792660;32;38782;-76
2022/11/07 05:58:49;;;;;;;20.65;12.93;;;;;;;11.16;68.26;100110.50;7792119;32;36826;-76
2022/11/07 06:03:05;;;;;;;22.10;12.20;;;;;;;11.07;68.69;100123.00;7792692;32;39770;-77
2022/11/07 06:07:22;;;;;;;21.65;12.85;;;;;;;11.24;68.18;100122.81;7778456;32;39942;-78
2022/11/07 06:11:38;;;;;;;17.40;11.30;;;;;;;11.37;67.92;100133.22;7792008;32;38779;-78
2022/11/07 06:15:56;;;;;;;19.25;11.48;;;;;;;11.57;67.17;100135.19;7792307;32;37907;-78
2022/11/07 06:20:12;;;;;;;25.77;13.82;;;;;;;11.80;66.23;100147.50;7791978;32;39350;-78
2022/11/07 06:24:28;;;;;;;24.35;13.10;;;;;;;11.75;66.64;100139.31;7792213;32;39980;-78
2022/11/07 06:28:44;;;;;;;25.65;12.98;;;;;;;11.55;67.56;100145.53;7791789;32;38227;-78
2022/11/07 06:33:02;;;;;;;24.75;13.00;;;;;;;11.45;68.34;100150.97;7792297;32;36992;-81
2022/11/07 06:37:19;;;;;;;25.58;13.05;;;;;;;11.51;68.48;100162.75;7778859;32;39332;-79
2022/11/07 06:41:36;;;;;;;31.80;13.77;;;;;;;12.11;68.69;100163.16;7764932;32;40803;-76
2022/11/07 06:45:52;;;;;;;26.17;13.57;;;;;;;12.34;67.98;100168.06;7764814;32;38787;-81
2022/11/07 06:50:08;;;;;;;26.95;13.30;;;;;;;12.23;67.35;100166.44;7764817;32;37888;-81
2022/11/07 06:54:24;;;;;;;28.60;14.27;;;;;;;12.36;66.62;100176.78;7764937;32;38959;-78
2022/11/07 06:58:41;;;;;;;23.25;12.57;;;;;;;12.59;66.10;100174.62;7764805;32;39618;-81
2022/11/07 07:02:57;;;;;;;23.30;12.43;;;;;;;12.46;66.51;100173.25;7784554;32;38082;-82
2022/11/07 07:07:14;;;;;;;24.73;13.05;;;;;;;12.76;65.54;100179.75;7791732;32;37149;-81
2022/11/07 07:11:30;;;;;;;28.30;12.32;;;;;;;12.54;66.08;100182.81;7790599;32;40058;-82
2022/11/07 07:15:56;;;;;;;23.77;12.37;;;;;;;12.38;67.26;100196.50;7790652;32;40841;-77
2022/11/07 07:20:12;;;;;;;27.52;13.68;;;;;;;12.71;66.72;100180.59;7815824;32;38146;-81
2022/11/07 07:24:29;;;;;;;23.17;12.32;;;;;;;12.87;66.30;100181.38;7804696;32;36828;-82
2022/11/07 07:28:45;;;;;;;24.80;12.65;;;;;;;12.99;66.42;100183.81;7818538;32;39740;-81
2022/11/07 07:33:01;;;;;;;24.33;12.60;;;;;;;13.21;66.06;100196.31;7798187;32;39948;-81
2022/11/07 07:37:18;;;;;;;23.30;12.63;;;;;;;13.20;66.81;100194.69;7791182;32;38998;-81
2022/11/07 07:41:34;;;;;;;26.52;14.07;;;;;;;13.32;66.71;100190.56;7791062;32;37088;-83
2022/11/07 07:46:02;;;;;;;23.17;12.73;;;;;;;13.31;66.86;100202.63;7791010;32;38916;-82
2022/11/07 07:50:20;;;;;;;26.42;14.02;;;;;;;13.36;66.89;100198.22;7790899;32;39912;-79
2022/11/07 07:54:36;;;;;;;29.63;15.32;;;;;;;13.80;65.28;100206.50;7790648;32;38020;-81
2022/11/07 07:58:52;;;;;;;29.65;14.87;;;;;;;13.53;65.29;100204.97;7790291;32;37152;-82
2022/11/07 08:03:11;;;;;;;24.92;13.18;;;;;;;14.00;64.75;100210.19;7790011;32;39827;-82
2022/11/07 08:07:27;;;;;;;24.30;13.75;;;;;;;13.88;64.41;100211.38;7751643;32;41770;-78
2022/11/07 08:11:43;;;;;;;24.40;12.63;;;;;;;14.05;63.98;100210.16;7773647;32;38152;-81
2022/11/07 08:16:02;;;;;;;24.73;13.05;;;;;;;14.31;63.89;100212.72;7789932;32;37166;-81
2022/11/07 08:20:19;;;;;;;24.35;13.15;;;;;;;14.37;64.25;100211.59;7788341;32;38259;-80
2022/11/07 08:24:35;;;;;;;27.65;12.88;;;;;;;14.08;64.30;100209.59;7793437;32;40893;-82
2022/11/07 08:28:53;;;;;;;25.33;12.50;;;;;;;14.35;64.06;100213.78;7818987;32;38087;-81
2022/11/07 08:33:09;;;;;;;28.75;13.75;;;;;;;14.48;63.07;100224.09;7820948;32;37685;-83
2022/11/07 08:37:25;;;;;;;24.75;12.82;;;;;;;14.69;61.92;100207.50;7820232;32;38855;-83
2022/11/07 08:41:41;;;;;;;22.10;10.85;;;;;;;14.68;62.25;100205.84;7818289;32;40145;-81
2022/11/07 08:45:58;;;;;;;25.70;12.32;;;;;;;14.68;64.58;100205.84;7820761;32;38959;-81
2022/11/07 08:50:14;;;;;;;23.55;12.18;;;;;;;14.31;63.87;100218.22;7818981;32;37095;-81
2022/11/07 08:54:31;;;;;;;26.37;12.15;;;;;;;14.46;64.50;100227.13;7817255;32;39665;-80
2022/11/07 08:58:47;;;;;;;18.23;10.07;;;;;;;14.27;61.63;100224.25;7817197;32;39595;-82
2022/11/07 09:03:07;;;;;;;21.25;11.88;;;;;;;13.85;60.40;100227.59;7817214;32;38512;-83
2022/11/07 09:07:43;;;;;;;19.77;10.27;;;;;;;13.86;62.24;100221.78;7817518;32;37206;-81
2022/11/07 09:11:59;;;;;;;18.55;8.82;;;;;;;14.02;61.25;100217.06;7820971;32;39375;-80
2022/11/07 09:16:18;;;;;;;17.02;8.82;;;;;;;13.72;59.85;100229.00;7820245;32;40025;-81
2022/11/07 09:20:35;;;;;;;16.23;8.40;;;;;;;13.71;59.80;100228.19;7820564;32;38035;-83
2022/11/07 09:24:51;;;;;;;17.45;8.30;;;;;;;13.41;59.66;100240.09;7820640;32;36958;-84
2022/11/07 09:29:08;;;;;;;18.92;10.77;;;;;;;13.55;59.00;100242.25;7820372;32;39190;-85
2022/11/07 09:33:24;;;;;;;17.70;9.00;;;;;;;12.66;61.45;100240.78;7819719;32;39846;-84
2022/11/07 09:37:41;;;;;;;16.60;7.45;;;;;;;12.69;62.14;100242.94;7806401;32;38376;-83
2022/11/07 09:42:22;;;;;;;15.48;7.97;;;;;;;13.09;60.20;100237.69;7806389;32;37045;-82
2022/11/07 09:46:50;;;;;;;17.95;7.80;;;;;;;13.33;59.73;100243.41;7820333;32;39343;-81
2022/11/07 09:51:08;;;;;;;15.77;8.38;;;;;;;13.37;60.21;100243.69;7820246;32;39839;-84
2022/11/07 09:55:31;;;;;;;15.05;7.47;;;;;;;13.30;60.21;100243.94;7793541;32;37104;-78
2022/11/07 09:59:57;;;;;;;16.92;8.13;;;;;;;13.19;59.81;100243.13;7798874;32;36775;-73
2022/11/07 10:04:19;;;;;;;16.70;8.38;;;;;;;13.17;60.09;100250.00;7790229;32;39982;-75
2022/11/07 10:08:58;;;;;;;18.00;8.35;;;;;;;13.68;59.63;100245.19;7792220;32;40903;-77
2022/11/07 10:13:46;;;;;;;14.82;7.07;;;;;;;13.58;60.76;100247.16;7792594;32;38699;-80
2022/11/07 10:18:35;;;;;;;16.35;8.25;;;;;;;13.15;61.69;100242.88;7781060;32;37856;-78
2022/11/07 10:23:29;;;;;;;16.12;6.82;;;;;;;13.22;61.12;100239.03;7779942;32;39247;-78
2022/11/07 10:28:04;;;;;;;11.52;5.87;;;;;;;13.32;58.43;100239.03;7791970;32;39687;-80
2022/11/07 10:32:35;;;;;;;10.82;4.37;;;;;;;13.34;57.10;100231.38;7778904;32;37864;-79
2022/11/07 10:36:51;;;;;;;9.23;4.85;;;;;;;13.00;55.77;100234.69;7792356;32;36697;-80
2022/11/07 10:41:24;;;;;;;9.05;4.35;;;;;;;13.11;55.41;100230.03;7792110;32;39732;-78
2022/11/07 10:45:40;;;;;;;10.40;4.30;;;;;;;12.80;55.80;100240.22;7791997;32;39899;-80
2022/11/07 10:49:59;;;;;;;9.18;5.28;;;;;;;12.82;55.77;100232.56;7776474;32;37718;-79
2022/11/07 10:54:28;;;;;;;8.30;4.30;;;;;;;12.15;57.57;100224.38;7788793;32;35952;-79
2022/11/07 10:58:45;;;;;;;11.20;4.40;;;;;;;12.63;55.79;100213.97;7787965;32;39267;-78
2022/11/07 11:03:01;;;;;;;7.18;3.83;;;;;;;12.80;55.79;100213.69;7788769;32;40724;-79
2022/11/07 11:07:17;;;;;;;11.60;5.15;;;;;;;12.82;55.85;100216.16;7787377;32;37967;-81
2022/11/07 11:11:39;;;;;;;10.65;5.47;;;;;;;13.00;56.95;100212.81;7791127;32;36715;-81
2022/11/07 11:15:58;;;;;;;10.63;5.30;;;;;;;13.22;57.05;100200.72;7790597;32;39721;-79
2022/11/07 11:20:35;;;;;;;12.10;4.68;;;;;;;13.21;57.52;100199.06;7791269;32;40998;-78
2022/11/07 11:25:03;;;;;;;12.55;4.62;;;;;;;12.71;57.73;100194.28;7769789;32;278567;-77
2022/11/07 11:29:32;;;;;;;9.50;4.87;;;;;;;12.99;57.74;100193.94;7778105;32;36635;-78
2022/11/07 11:34:04;;;;;;;9.48;4.70;;;;;;;13.00;58.09;100190.91;7790824;32;39440;-77
2022/11/07 11:38:25;;;;;;;10.55;5.30;;;;;;;13.09;57.83;100189.25;7790150;32;39892;-77
2022/11/07 11:42:49;;;;;;;10.02;4.30;;;;;;;12.70;59.33;100191.81;8221588;26;37683;-88
2022/11/07 11:47:23;;;;;;;10.35;4.97;;;;;;;12.50;59.43;100190.72;7791261;32;37849;-90
2022/11/07 11:51:49;;;;;;;11.07;4.90;;;;;;;12.66;59.02;100196.19;7791094;32;39674;-89
2022/11/07 11:56:20;;;;;;;14.25;6.45;;;;;;;12.38;60.49;100199.25;7779359;32;40002;-88
2022/11/07 12:00:45;;;;;;;12.73;5.75;;;;;;;11.85;62.53;100204.06;7770572;32;38653;-89
2022/11/07 12:05:19;;;;;;;10.98;5.65;;;;;;;12.09;61.82;100198.94;7788493;32;37090;-92
2022/11/07 12:10:07;;;;;;;12.20;5.82;;;;;;;11.65;62.47;100205.66;7773031;32;39460;-86
2022/11/07 12:14:37;;;;;;;11.12;5.07;;;;;;;12.14;60.86;100201.69;7738799;32;40760;-85
2022/11/07 12:19:03;;;;;;;13.27;5.75;;;;;;;12.55;59.53;100195.38;7766706;32;37307;-91
2022/11/07 12:23:28;;;;;;;11.20;5.78;;;;;;;12.28;60.84;100195.66;7778932;32;37023;-90
2022/11/07 12:28:00;;;;;;;13.27;5.60;;;;;;;12.84;59.96;100181.94;7793249;32;40515;-91
2022/11/07 12:32:28;;;;;;;10.23;4.82;;;;;;;13.78;57.62;100183.19;7793319;32;40771;-88
2022/11/07 12:37:07;;;;;;;9.68;4.78;;;;;;;14.26;56.39;100164.22;7793364;32;37876;-87
2022/11/07 12:41:47;;;;;;;11.20;5.60;;;;;;;15.03;54.64;100158.81;7785396;32;37075;-87
2022/11/07 12:46:06;;;;;;;11.88;5.22;;;;;;;15.07;52.47;100158.22;7793590;32;39282;-85
2022/11/07 12:50:55;;;;;;;9.80;5.05;;;;;;;15.13;51.65;100151.56;7792633;32;40450;-87
2022/11/07 12:55:27;;;;;;;9.93;4.60;;;;;;;15.13;51.34;100151.56;7774744;32;38678;-90
2022/11/07 12:59:49;;;;;;;6.87;3.87;;;;;;;15.87;49.47;100137.41;7788880;32;37537;-90
2022/11/07 13:04:32;;;;;;;8.68;3.85;;;;;;;15.22;51.08;100147.06;7792977;32;40149;-90
2022/11/07 13:09:03;;;;;;;12.15;3.67;;;;;;;15.70;50.97;100149.69;7769988;32;39845;-90
2022/11/07 13:13:28;;;;;;;10.82;4.20;;;;;;;15.13;51.59;100146.88;7792874;32;38858;-90
2022/11/07 13:17:45;;;;;;;9.15;3.70;;;;;;;15.06;51.14;100145.63;7780141;32;38095;-90
2022/11/07 13:22:20;;;;;;;9.05;4.05;;;;;;;15.26;51.81;100145.34;7779025;32;39036;-89
2022/11/07 13:26:36;;;;;;;10.20;3.62;;;;;;;14.80;52.60;100143.16;7778925;32;39589;-90
2022/11/07 13:31:04;;;;;;;8.57;3.60;;;;;;;15.47;51.62;100139.56;7792485;32;37779;-91
2022/11/07 13:35:22;;;;;;;9.15;4.62;;;;;;;16.63;48.59;100128.94;7793006;32;37643;-89
2022/11/07 13:39:38;;;;;;;7.03;3.40;;;;;;;17.73;47.11;100132.72;7792826;32;39898;-90
2022/11/07 13:44:24;;;;;;;10.25;3.72;;;;;;;18.83;44.35;100122.25;7778396;32;39574;-90
2022/11/07 13:48:42;;;;;;;5.97;2.70;;;;;;;19.26;42.45;100119.63;7787155;32;38015;-91
2022/11/07 13:53:02;;;;;;;7.03;2.95;;;;;;;18.15;42.56;100130.66;7792697;32;36709;-90
2022/11/07 13:57:33;;;;;;;8.23;3.35;;;;;;;18.73;42.91;100134.38;7793049;32;39288;-92
2022/11/07 14:01:54;;;;;;;10.48;4.22;;;;;;;18.16;42.39;100130.34;7775536;32;40303;-90
2022/11/07 14:06:15;;;;;;;7.15;3.42;;;;;;;16.93;46.45;100140.50;7792585;32;38527;-90
2022/11/07 14:10:46;;;;;;;8.10;3.58;;;;;;;16.13;49.34;100152.34;7792270;32;37065;-90
2022/11/07 14:15:02;;;;;;;7.47;3.47;;;;;;;15.69;49.76;100158.22;7792527;32;39377;-91
2022/11/07 14:19:29;;;;;;;7.70;3.85;;;;;;;17.44;46.31;100156.78;7791716;32;39771;-89
2022/11/07 14:23:45;;;;;;;8.18;3.80;;;;;;;21.33;37.07;100140.09;7792145;32;37895;-91
2022/11/07 14:28:05;;;;;;;7.32;3.25;;;;;;;23.97;31.32;100132.06;7792531;32;37166;-89
2022/11/07 14:32:22;;;;;;;7.47;3.20;;;;;;;25.74;27.80;100137.28;7792447;32;39984;-89
2022/11/07 14:36:54;;;;;;;10.82;3.42;;;;;;;24.85;29.52;100141.56;7791788;32;39851;-88
2022/11/07 14:41:11;;;;;;;5.37;3.05;;;;;;;25.00;28.57;100134.38;7791597;32;37699;-87
2022/11/07 14:45:28;;;;;;;6.40;3.65;;;;;;;25.24;28.43;100147.31;7777687;32;37591;-85
2022/11/07 14:50:05;;;;;;;6.45;3.35;;;;;;;25.17;28.46;100138.78;7791037;32;40510;-84
2022/11/07 14:54:24;;;;;;;8.32;3.30;;;;;;;25.10;28.20;100137.41;7791594;32;40028;-86
2022/11/07 14:58:40;;;;;;;6.40;3.53;;;;;;;23.50;30.94;100137.38;7773962;32;39095;-86
2022/11/07 15:02:58;;;;;;;7.57;3.22;;;;;;;21.79;34.06;100147.81;7791653;32;37024;-87
2022/11/07 15:07:45;;;;;;;8.15;3.67;;;;;;;21.13;35.50;100151.97;7777667;32;38518;-90
2022/11/07 15:12:14;;;;;;;6.35;3.60;;;;;;;20.39;36.40;100148.47;7792025;32;39336;-86
2022/11/07 15:16:35;;;;;;;9.63;4.32;;;;;;;19.18;39.00;100150.00;7778762;32;37897;-89
2022/11/07 15:20:59;;;;;;;10.50;4.47;;;;;;;18.25;41.38;100158.00;7777706;32;37099;-88
2022/11/07 15:25:37;;;;;;;7.87;4.15;;;;;;;17.25;43.97;100161.63;7776782;32;39306;-87
2022/11/07 15:29:55;;;;;;;9.15;3.78;;;;;;;16.90;44.83;100158.44;7777408;32;40678;-85
2022/11/07 15:34:11;;;;;;;8.27;4.18;;;;;;;16.32;46.79;100163.31;7790861;32;37310;-88
2022/11/07 15:38:28;;;;;;;10.32;4.05;;;;;;;15.30;50.22;100171.12;7772264;32;37757;-90
2022/11/07 15:42:45;;;;;;;6.70;3.37;;;;;;;15.29;50.49;100172.22;7776554;32;39854;-88
2022/11/07 15:47:02;;;;;;;5.43;3.30;;;;;;;15.23;50.20;100181.66;7790191;32;39596;-86
2022/11/07 15:51:18;;;;;;;16.65;3.62;;;;;;;14.84;51.08;100177.16;7790099;32;38648;-88
2022/11/07 15:55:34;;;;;;;7.57;3.65;;;;;;;15.03;50.26;100180.75;7790120;32;38065;-87
2022/11/07 15:59:50;;;;;;;9.95;4.82;;;;;;;14.77;50.96;100176.69;7781351;32;39081;-88
2022/11/07 16:04:07;;;;;;;10.82;5.65;;;;;;;14.71;51.33;100183.31;7775332;32;40633;-90
2022/11/07 16:08:23;;;;;;;10.73;6.28;;;;;;;14.51;51.63;100190.59;7788213;32;38640;-89
2022/11/07 16:12:40;;;;;;;12.70;6.50;;;;;;;14.35;52.38;100197.31;7763026;32;38068;-86
2022/11/07 16:16:56;;;;;;;10.50;6.35;;;;;;;14.09;52.97;100190.13;7789566;32;39275;-88
2022/11/07 16:21:12;;;;;;;10.65;5.85;;;;;;;13.83;53.81;100189.50;7789684;32;39901;-89
2022/11/07 16:25:30;;;;;;;13.65;7.43;;;;;;;13.81;54.05;100183.44;7788729;32;38082;-88
2022/11/07 16:29:46;;;;;;;11.00;6.25;;;;;;;13.64;54.42;100194.81;7789332;32;37054;-88
2022/11/07 16:34:02;;;;;;;11.30;6.12;;;;;;;13.55;54.50;100201.97;7788914;32;40042;-88
2022/11/07 16:38:21;;;;;;;10.80;5.65;;;;;;;12.90;56.44;100204.62;7788636;32;39657;-87
2022/11/07 16:42:37;;;;;;;11.75;6.25;;;;;;;12.79;56.73;100209.31;7790255;32;37108;-88
2022/11/07 16:46:57;;;;;;;10.40;5.57;;;;;;;12.44;58.20;100221.09;7793368;32;37792;-87
2022/11/07 16:51:15;;;;;;;11.95;5.62;;;;;;;12.82;57.21;100218.88;7779433;32;39809;-88
2022/11/07 16:55:32;;;;;;;9.18;5.45;;;;;;;12.39;58.38;100219.19;7793068;32;39886;-88
2022/11/07 16:59:49;;;;;;;9.95;5.20;;;;;;;12.24;58.99;100230.94;7788747;32;38749;-90
2022/11/07 17:04:06;;;;;;;10.75;5.78;;;;;;;12.03;59.16;100230.91;7792589;32;36949;-88
2022/11/07 17:08:37;;;;;;;11.77;6.07;;;;;;;12.29;58.66;100247.34;7791732;32;37787;-87
2022/11/07 17:12:54;;;;;;;12.15;5.60;;;;;;;11.78;59.91;100247.19;7810586;32;39880;-87
2022/11/07 17:17:11;;;;;;;15.95;6.30;;;;;;;11.79;59.68;100244.19;7791112;32;37851;-89
2022/11/07 17:21:30;;;;;;;14.25;7.62;;;;;;;11.39;60.84;100251.16;7776128;32;37130;-87
2022/11/07 17:25:52;;;;;;;14.48;7.97;;;;;;;11.46;60.94;100265.38;7791848;32;39908;-89
2022/11/07 17:30:17;;;;;;;17.05;8.15;;;;;;;11.18;62.20;100266.59;7778233;32;39943;-88
2022/11/07 17:34:33;;;;;;;13.57;7.47;;;;;;;11.68;60.48;100258.94;7776658;32;38782;-89
2022/11/07 17:38:51;;;;;;;11.23;6.82;;;;;;;11.57;60.30;100255.34;7792326;32;37138;-89
2022/11/07 17:43:07;;;;;;;13.98;7.05;;;;;;;11.30;60.88;100269.12;7778924;32;39218;-91
2022/11/07 17:47:33;;;;;;;13.45;6.28;;;;;;;11.16;61.02;100266.06;7792744;32;39820;-90
2022/11/07 17:51:51;;;;;;;9.77;4.80;;;;;;;11.04;61.17;100276.34;7777665;32;37880;-89
2022/11/07 17:56:17;;;;;;;11.60;5.32;;;;;;;11.23;60.48;100279.47;7791066;32;36500;-89
2022/11/07 18:00:34;;;;;;;14.07;5.78;;;;;;;10.84;62.18;100266.94;7774191;32;40130;-90
2022/11/07 18:04:50;;;;;;;8.95;5.45;;;;;;;11.02;61.97;100267.59;7778064;32;40782;-88
2022/11/07 18:09:11;;;;;;;9.63;5.50;;;;;;;10.86;62.18;100270.22;7791409;32;37575;-88
2022/11/07 18:13:28;;;;;;;9.43;5.25;;;;;;;10.48;63.86;100279.47;7789855;32;37010;-87
2022/11/07 18:17:44;;;;;;;9.00;5.30;;;;;;;10.66;63.55;100273.63;7791794;32;40011;-86
2022/11/07 18:22:00;;;;;;;13.77;5.45;;;;;;;10.66;62.75;100275.53;7791363;32;40021;-89
2022/11/07 18:26:19;;;;;;;8.85;5.60;;;;;;;10.38;63.14;100273.91;7790864;32;37742;-86
2022/11/07 18:30:35;;;;;;;8.50;4.90;;;;;;;10.47;62.94;100262.28;7790555;32;37785;-87
2022/11/07 18:34:52;;;;;;;10.48;5.35;;;;;;;10.51;62.91;100257.94;7790404;32;39311;-85
2022/11/07 18:39:13;;;;;;;7.93;5.30;;;;;;;10.66;62.58;100260.00;7789987;32;39862;-86
2022/11/07 18:43:30;;;;;;;8.98;5.43;;;;;;;10.71;62.33;100261.94;7776610;32;39227;-88
2022/11/07 18:47:46;;;;;;;12.40;5.28;;;;;;;10.54;62.87;100256.63;7781693;32;36887;-86
2022/11/07 18:52:03;;;;;;;9.52;5.25;;;;;;;10.16;63.81;100258.44;7792231;32;39876;-86
2022/11/07 18:56:20;;;;;;;10.63;5.25;;;;;;;10.38;62.71;100258.38;7815507;32;40789;-85
2022/11/07 19:00:36;;;;;;;8.40;4.82;;;;;;;10.44;62.14;100256.53;7775087;32;37791;-85
2022/11/07 19:04:54;;;;;;;10.43;5.57;;;;;;;10.35;62.56;100272.53;7775276;32;36275;-87
2022/11/07 19:09:10;;;;;;;10.63;5.53;;;;;;;10.40;61.96;100272.59;7787953;32;40154;-87
2022/11/07 19:13:27;;;;;;;10.68;5.37;;;;;;;10.43;62.28;100272.03;7790881;32;38044;-88
2022/11/07 19:17:43;;;;;;;8.88;5.43;;;;;;;10.53;61.51;100274.03;7790322;32;38049;-86
2022/11/07 19:22:00;;;;;;;11.85;6.10;;;;;;;10.37;62.50;100273.09;7790683;32;37051;-87
2022/11/07 19:26:20;;;;;;;12.13;6.50;;;;;;;10.04;62.35;100280.38;7817024;32;38954;-86
2022/11/07 19:30:38;;;;;;;16.05;6.28;;;;;;;9.84;62.82;100277.44;7788626;32;39816;-86
2022/11/07 19:34:54;;;;;;;9.90;5.60;;;;;;;9.81;63.31;100275.22;7791125;32;38657;-86
2022/11/07 19:39:10;;;;;;;10.50;5.40;;;;;;;10.10;62.68;100273.06;7796406;32;37193;-87
2022/11/07 19:43:27;;;;;;;9.27;4.90;;;;;;;9.96;63.00;100278.09;7818083;32;39025;-87
2022/11/07 19:47:44;;;;;;;10.23;5.53;;;;;;;10.14;62.03;100274.19;7818132;32;40725;-87
2022/11/07 19:52:03;;;;;;;10.40;5.90;;;;;;;10.04;62.13;100285.00;7817991;32;37842;-87
2022/11/07 19:56:20;;;;;;;14.30;6.20;;;;;;;9.91;62.67;100292.47;7791548;32;37188;-86
2022/11/07 20:00:36;;;;;;;14.27;6.80;;;;;;;10.24;61.76;100295.28;7790135;32;39413;-87